createdAt,value
2023-02-16T00:01:21.143Z,302.85
2023-02-16T00:03:48.527Z,285.05
2023-02-16T00:06:16.274Z,314.08
2023-02-16T00:08:46.907Z,254.70
2023-02-16T00:13:59.334Z,216.60
2023-02-16T00:16:26.378Z,318.30
2023-02-16T00:18:53.417Z,255.68
2023-02-16T00:21:20.496Z,281.45
2023-02-16T00:23:48.416Z,332.88
2023-02-16T00:26:16.237Z,269.15
2023-02-16T00:28:43.396Z,378.55
2023-02-16T00:31:18.015Z,302.40
2023-02-16T00:33:45.225Z,400.45
2023-02-16T00:36:12.312Z,279.35
2023-02-16T00:38:39.431Z,268.17
2023-02-16T00:41:26.493Z,250.50
2023-02-16T00:43:54.819Z,278.55
2023-02-16T00:46:22.101Z,229.75
2023-02-16T00:48:49.138Z,221.55
2023-02-16T00:51:25.572Z,308.40
2023-02-16T00:53:53.219Z,271.42
2023-02-16T00:56:20.982Z,245.07
2023-02-16T00:58:48.377Z,297.90
2023-02-16T01:01:15.679Z,308.70
2023-02-16T01:03:42.716Z,295.63
2023-02-16T01:06:29.120Z,314.80
2023-02-16T01:09:15.129Z,299.52
2023-02-16T01:11:42.158Z,299.40
2023-02-16T01:14:09.931Z,312.60
2023-02-16T01:16:37.914Z,323.02
2023-02-16T01:19:05.119Z,295.45
2023-02-16T01:21:32.276Z,303.08
2023-02-16T01:23:59.480Z,284.95
2023-02-16T01:26:26.535Z,285.92
2023-02-16T01:28:53.574Z,408.38
2023-02-16T01:31:20.666Z,337.42
2023-02-16T01:33:47.785Z,389.05
2023-02-16T01:36:20.796Z,326.08
2023-02-16T01:38:47.865Z,390.15
2023-02-16T01:41:25.605Z,265.67
2023-02-16T01:43:57.659Z,382.83
2023-02-16T01:46:37.446Z,328.05
2023-02-16T01:49:04.449Z,299.35
2023-02-16T01:51:35.312Z,297.88
2023-02-16T01:54:08.410Z,335.65
2023-02-16T01:56:46.526Z,305.33
2023-02-16T01:59:18.126Z,373.00
2023-02-16T02:01:50.776Z,342.27
2023-02-16T02:04:40.654Z,404.27
2023-02-16T02:07:07.771Z,422.17
2023-02-16T02:09:36.330Z,398.85
2023-02-16T02:12:22.388Z,329.77
2023-02-16T02:14:49.487Z,289.60
2023-02-16T02:17:17.543Z,428.90
2023-02-16T02:19:46.607Z,399.40
2023-02-16T02:22:51.115Z,253.05
2023-02-16T02:25:23.440Z,225.85
2023-02-16T02:28:06.750Z,417.02
2023-02-16T02:30:46.937Z,308.70
2023-02-16T02:33:35.484Z,441.63
2023-02-16T02:36:21.470Z,257.08
2023-02-16T02:38:48.528Z,401.85
2023-02-16T02:41:55.041Z,262.65
2023-02-16T02:44:22.623Z,360.55
2023-02-16T02:46:49.679Z,304.13
2023-02-16T02:49:16.882Z,349.63
2023-02-16T02:51:43.848Z,325.70
2023-02-16T02:54:31.489Z,344.08
2023-02-16T02:57:20.196Z,438.98
2023-02-16T03:00:10.570Z,354.52
2023-02-16T03:02:37.973Z,359.80
2023-02-16T03:05:05.376Z,325.30
2023-02-16T03:07:47.343Z,357.70
2023-02-16T03:10:33.890Z,349.58
2023-02-16T03:13:01.358Z,345.70
2023-02-16T03:15:28.370Z,265.17
2023-02-16T03:18:13.963Z,314.75
2023-02-16T03:20:59.936Z,465.95
2023-02-16T03:23:45.336Z,296.65
2023-02-16T03:26:30.851Z,398.23
2023-02-16T03:29:17.456Z,338.70
2023-02-16T03:31:44.564Z,245.07
2023-02-16T03:34:11.670Z,294.90
2023-02-16T03:36:39.204Z,320.98
2023-02-16T03:39:06.229Z,274.00
2023-02-16T03:41:33.974Z,316.05
2023-02-16T03:44:01.099Z,384.38
2023-02-16T03:46:28.128Z,361.67
2023-02-16T03:48:55.148Z,252.63
2023-02-16T03:51:22.244Z,484.02
2023-02-16T03:53:50.177Z,400.17
2023-02-16T03:56:17.217Z,316.13
2023-02-16T03:58:44.242Z,343.38
2023-02-16T04:01:11.230Z,336.67
2023-02-16T04:03:38.356Z,297.50
2023-02-16T04:06:05.429Z,353.30
2023-02-16T04:08:32.487Z,344.65
2023-02-16T04:11:00.326Z,334.98
2023-02-16T04:13:27.348Z,401.80
2023-02-16T04:15:54.388Z,359.98
2023-02-16T04:18:21.455Z,266.40
2023-02-16T04:20:48.495Z,330.02
2023-02-16T04:23:15.535Z,337.38
2023-02-16T04:25:42.648Z,409.00
2023-02-16T04:28:09.625Z,300.75
2023-02-16T04:30:36.809Z,323.38
2023-02-16T04:33:03.869Z,266.67
2023-02-16T04:35:30.900Z,291.25
2023-02-16T04:37:57.870Z,277.30
2023-02-16T04:40:24.892Z,278.98
2023-02-16T04:42:52.075Z,388.30
2023-02-16T04:45:19.103Z,311.33
2023-02-16T04:47:46.104Z,319.10
2023-02-16T04:50:13.346Z,499.50
2023-02-16T04:52:41.396Z,342.30
2023-02-16T04:55:10.660Z,373.20
2023-02-16T04:57:38.682Z,403.90
2023-02-16T05:00:06.912Z,357.42
2023-02-16T05:02:33.951Z,514.80
2023-02-16T05:05:00.955Z,327.48
2023-02-16T05:07:28.054Z,301.35
2023-02-16T05:09:55.153Z,321.23
2023-02-16T05:12:40.932Z,292.52
2023-02-16T05:15:08.006Z,398.17
2023-02-16T05:17:34.988Z,357.60
2023-02-16T05:20:02.120Z,355.92
2023-02-16T05:22:29.276Z,370.13
2023-02-16T05:24:56.285Z,305.38
2023-02-16T05:27:24.207Z,239.55
2023-02-16T05:29:51.330Z,327.38
2023-02-16T05:32:18.567Z,441.00
2023-02-16T05:34:45.748Z,403.20
2023-02-16T05:37:16.224Z,290.13
2023-02-16T05:42:10.253Z,288.40
2023-02-16T05:44:37.506Z,292.08
2023-02-16T05:47:04.709Z,268.70
2023-02-16T05:49:31.775Z,261.67
2023-02-16T05:51:59.318Z,320.58
2023-02-16T05:54:27.768Z,266.83
2023-02-16T05:56:54.883Z,256.85
2023-02-16T05:59:21.935Z,403.50
2023-02-16T06:01:51.853Z,248.65
2023-02-16T06:06:46.395Z,287.08
2023-02-16T06:09:13.382Z,261.70
2023-02-16T06:11:40.386Z,239.13
2023-02-16T06:14:08.551Z,295.67
2023-02-16T06:16:35.849Z,248.68
2023-02-16T06:19:02.936Z,303.48
2023-02-16T06:21:30.014Z,293.48
2023-02-16T06:23:56.992Z,345.20
2023-02-16T06:26:24.027Z,263.95
2023-02-16T06:28:51.052Z,237.38
2023-02-16T06:31:18.258Z,259.25
2023-02-16T06:33:45.459Z,291.45
2023-02-16T06:36:12.679Z,312.75
2023-02-16T06:38:39.703Z,196.80
2023-02-16T06:41:07.019Z,346.35
2023-02-16T06:43:34.200Z,270.25
2023-02-16T06:46:01.189Z,306.98
2023-02-16T06:48:28.227Z,323.75
2023-02-16T06:50:55.283Z,356.10
2023-02-16T06:53:22.364Z,222.15
2023-02-16T06:55:50.690Z,277.20
2023-02-16T06:58:17.708Z,237.82
2023-02-16T07:00:44.724Z,233.07
2023-02-16T07:03:11.821Z,273.08
2023-02-16T07:05:38.901Z,244.02
2023-02-16T07:08:05.907Z,295.65
2023-02-16T07:10:48.675Z,329.27
2023-02-16T07:13:16.723Z,321.42
2023-02-16T07:15:43.826Z,329.17
2023-02-16T07:18:10.821Z,299.05
2023-02-16T07:20:37.940Z,244.10
2023-02-16T07:23:05.059Z,220.55
2023-02-16T07:25:32.052Z,259.77
2023-02-16T07:27:59.125Z,255.38
2023-02-16T07:30:26.268Z,260.58
2023-02-16T07:32:53.310Z,279.98
2023-02-16T07:35:21.304Z,297.92
2023-02-16T07:37:48.481Z,295.52
2023-02-16T07:40:15.449Z,288.25
2023-02-16T07:42:42.526Z,299.83
2023-02-16T07:45:09.821Z,266.40
2023-02-16T07:47:36.847Z,316.85
2023-02-16T07:50:03.998Z,369.45
2023-02-16T07:52:31.284Z,327.00
2023-02-16T07:55:01.705Z,335.08
2023-02-16T07:57:28.863Z,364.42
2023-02-16T07:59:55.928Z,376.40
2023-02-16T08:02:23.229Z,356.67
2023-02-16T08:04:52.563Z,394.52
2023-02-16T08:07:19.601Z,362.88
2023-02-16T08:09:46.578Z,366.20
2023-02-16T08:12:13.842Z,396.88
2023-02-16T08:14:41.295Z,332.85
2023-02-16T08:17:08.382Z,336.92
2023-02-16T08:19:37.062Z,263.38
2023-02-16T08:22:06.034Z,340.63
2023-02-16T08:24:36.275Z,305.60
2023-02-16T08:27:04.275Z,347.27
2023-02-16T08:29:31.351Z,271.38
2023-02-16T08:31:58.437Z,302.15
2023-02-16T08:34:25.548Z,340.30
2023-02-16T08:36:54.025Z,273.95
2023-02-16T08:39:21.364Z,261.75
2023-02-16T08:41:48.880Z,349.60
2023-02-16T08:44:16.220Z,323.27
2023-02-16T08:46:43.855Z,404.55
2023-02-16T08:49:11.240Z,296.33
2023-02-16T08:51:39.010Z,414.52
2023-02-16T08:54:08.504Z,399.38
2023-02-16T08:56:35.559Z,240.65
2023-02-16T08:59:02.695Z,296.48
2023-02-16T09:01:30.739Z,346.95
2023-02-16T09:03:58.907Z,252.40
2023-02-16T09:06:25.930Z,264.27
2023-02-16T09:08:53.412Z,385.20
2023-02-16T09:11:20.516Z,271.15
2023-02-16T09:13:47.793Z,246.15
2023-02-16T09:16:16.212Z,286.58
2023-02-16T09:18:44.782Z,380.63
2023-02-16T09:21:14.951Z,277.23
2023-02-16T09:23:44.679Z,298.88
2023-02-16T09:26:12.079Z,339.60
2023-02-16T09:28:39.250Z,235.70
2023-02-16T09:31:16.340Z,261.55
2023-02-16T09:33:43.954Z,278.98
2023-02-16T09:36:11.894Z,288.30
2023-02-16T09:38:41.712Z,279.85
2023-02-16T09:41:27.828Z,252.10
2023-02-16T09:44:03.138Z,200.73
2023-02-16T09:46:30.880Z,275.88
2023-02-16T09:48:58.716Z,236.35
2023-02-16T09:51:34.290Z,223.40
2023-02-16T09:54:22.795Z,269.27
2023-02-16T09:56:55.168Z,253.05
2023-02-16T09:59:40.940Z,242.82
2023-02-16T10:02:23.237Z,240.05
2023-02-16T10:04:57.657Z,283.23
2023-02-16T10:07:44.976Z,346.83
2023-02-16T10:10:14.783Z,229.68
2023-02-16T10:12:43.462Z,219.98
2023-02-16T10:15:15.000Z,233.95
2023-02-16T10:17:42.800Z,265.70
2023-02-16T10:20:20.424Z,231.95
2023-02-16T10:23:06.422Z,234.63
2023-02-16T10:25:44.611Z,204.55
2023-02-16T10:28:18.926Z,212.43
2023-02-16T10:31:07.551Z,209.93
2023-02-16T10:33:41.051Z,201.93
2023-02-16T10:36:16.192Z,198.60
2023-02-16T10:38:55.417Z,203.55
2023-02-16T10:41:38.978Z,191.23
2023-02-16T10:44:11.154Z,221.93
2023-02-16T10:46:39.605Z,196.10
2023-02-16T10:49:09.281Z,176.55
2023-02-16T10:51:37.816Z,198.43
2023-02-16T10:54:06.517Z,198.98
2023-02-16T10:56:39.384Z,181.70
2023-02-16T10:59:16.582Z,194.90
2023-02-16T11:01:44.651Z,175.60
2023-02-16T11:04:29.723Z,184.02
2023-02-16T11:07:07.188Z,177.55
2023-02-16T11:09:34.319Z,173.88
2023-02-16T11:12:01.361Z,180.23
2023-02-16T11:14:30.394Z,175.55
2023-02-16T11:17:08.456Z,172.20
2023-02-16T11:19:35.531Z,163.73
2023-02-16T11:22:02.614Z,166.57
2023-02-16T11:24:30.413Z,162.82
2023-02-16T11:27:05.400Z,161.63
2023-02-16T11:29:32.446Z,168.65
2023-02-16T11:31:59.603Z,162.07
2023-02-16T11:34:30.781Z,161.15
2023-02-16T11:37:04.068Z,155.23
2023-02-16T11:39:33.830Z,162.18
2023-02-16T11:42:02.180Z,161.50
2023-02-16T11:44:33.832Z,162.18
2023-02-16T11:47:21.344Z,159.38
2023-02-16T11:49:48.403Z,149.68
2023-02-16T11:52:27.029Z,148.20
2023-02-16T11:54:55.811Z,147.48
2023-02-16T11:57:31.001Z,134.65
2023-02-16T11:59:58.346Z,150.43
2023-02-16T12:02:35.495Z,129.93
2023-02-16T12:05:21.635Z,136.52
2023-02-16T12:08:04.092Z,127.05
2023-02-16T12:10:42.890Z,139.20
2023-02-16T12:13:17.243Z,126.28
2023-02-16T12:15:49.021Z,108.57
2023-02-16T12:18:19.113Z,103.93
2023-02-16T12:20:48.997Z,104.55
2023-02-16T12:23:19.018Z,102.70
2023-02-16T12:25:55.057Z,109.95
2023-02-16T12:28:22.194Z,94.00
2023-02-16T12:30:52.788Z,97.40
2023-02-16T12:33:35.743Z,89.00
2023-02-16T12:36:20.052Z,100.13
2023-02-16T12:38:47.177Z,91.80
2023-02-16T12:41:14.187Z,93.40
2023-02-16T12:43:42.859Z,98.85
2023-02-16T12:46:14.809Z,88.78
2023-02-16T12:48:43.218Z,94.30
2023-02-16T12:51:11.602Z,87.30
2023-02-16T12:53:51.888Z,87.80
2023-02-16T12:56:21.122Z,86.95
2023-02-16T12:58:51.117Z,86.53
2023-02-16T13:01:19.315Z,84.40
2023-02-16T13:03:54.084Z,78.88
2023-02-16T13:06:26.378Z,79.65
2023-02-16T13:09:12.318Z,77.65
2023-02-16T13:11:53.891Z,83.35
2023-02-16T13:14:21.663Z,82.07
2023-02-16T13:16:52.924Z,83.05
2023-02-16T13:19:20.231Z,78.72
2023-02-16T13:21:53.152Z,76.00
2023-02-16T13:24:32.415Z,78.82
2023-02-16T13:27:18.163Z,75.75
2023-02-16T13:30:05.569Z,75.30
2023-02-16T13:32:55.538Z,73.95
2023-02-16T13:35:30.053Z,74.47
2023-02-16T13:38:15.922Z,74.20
2023-02-16T13:40:52.167Z,69.28
2023-02-16T13:43:37.504Z,71.22
2023-02-16T13:46:06.457Z,72.47
2023-02-16T13:48:38.247Z,66.10
2023-02-16T13:51:06.343Z,72.18
2023-02-16T13:53:37.861Z,68.53
2023-02-16T13:56:23.713Z,71.93
2023-02-16T13:58:51.495Z,72.57
2023-02-16T14:01:42.853Z,66.88
2023-02-16T14:04:12.733Z,71.93
2023-02-16T14:06:40.482Z,76.75
2023-02-16T14:09:16.903Z,73.90
2023-02-16T14:11:53.231Z,72.88
2023-02-16T14:14:31.283Z,67.07
2023-02-16T14:17:17.423Z,71.72
2023-02-16T14:19:52.338Z,71.90
2023-02-16T14:22:20.428Z,66.65
2023-02-16T14:24:54.511Z,71.35
2023-02-16T14:27:44.501Z,70.32
2023-02-16T14:30:16.063Z,70.85
2023-02-16T14:32:43.566Z,67.72
2023-02-16T14:35:18.829Z,65.10
2023-02-16T14:37:52.997Z,66.70
2023-02-16T14:40:35.327Z,64.63
2023-02-16T14:43:04.802Z,64.35
2023-02-16T14:45:37.919Z,65.80
2023-02-16T14:48:04.932Z,58.28
2023-02-16T14:50:34.740Z,65.65
2023-02-16T14:53:20.888Z,62.42
2023-02-16T14:55:50.708Z,59.25
2023-02-16T14:58:23.380Z,63.72
2023-02-16T15:00:54.236Z,59.65
2023-02-16T15:03:27.922Z,60.45
2023-02-16T15:05:57.103Z,58.10
2023-02-16T15:08:25.264Z,59.58
2023-02-16T15:10:55.753Z,59.38
2023-02-16T15:13:32.052Z,61.75
2023-02-16T15:16:00.276Z,59.97
2023-02-16T15:18:32.701Z,64.28
2023-02-16T15:20:59.813Z,67.35
2023-02-16T15:23:27.563Z,64.05
2023-02-16T15:25:54.622Z,63.67
2023-02-16T15:28:22.510Z,65.32
2023-02-16T15:30:53.533Z,64.15
2023-02-16T15:33:23.627Z,64.95
2023-02-16T15:35:59.104Z,66.50
2023-02-16T15:38:31.716Z,67.30
2023-02-16T15:41:01.713Z,62.50
2023-02-16T15:43:43.875Z,64.20
2023-02-16T15:46:24.014Z,63.88
2023-02-16T15:48:51.218Z,68.45
2023-02-16T15:51:20.998Z,66.18
2023-02-16T15:53:49.466Z,66.05
2023-02-16T15:56:37.279Z,65.18
2023-02-16T15:59:17.983Z,63.42
2023-02-16T16:01:45.120Z,66.85
2023-02-16T16:04:17.320Z,65.40
2023-02-16T16:06:46.016Z,61.22
2023-02-16T16:09:14.955Z,61.28
2023-02-16T16:11:41.969Z,61.22
2023-02-16T16:14:10.382Z,66.07
2023-02-16T16:16:37.603Z,62.00
2023-02-16T16:19:15.685Z,64.25
2023-02-16T16:21:54.237Z,64.88
2023-02-16T16:24:28.476Z,61.97
2023-02-16T16:26:56.318Z,63.75
2023-02-16T16:29:29.907Z,62.42
2023-02-16T16:31:57.340Z,65.13
2023-02-16T16:34:31.699Z,62.60
2023-02-16T16:36:58.816Z,71.78
2023-02-16T16:39:29.470Z,64.45
2023-02-16T16:42:15.798Z,69.75
2023-02-16T16:44:43.751Z,64.03
2023-02-16T16:47:22.569Z,72.60
2023-02-16T16:49:51.179Z,65.72
2023-02-16T16:52:33.531Z,63.85
2023-02-16T16:55:00.593Z,70.72
2023-02-16T16:57:28.490Z,71.30
2023-02-16T16:59:56.564Z,70.93
2023-02-16T17:02:23.608Z,66.78
2023-02-16T17:04:50.648Z,63.75
2023-02-16T17:07:17.660Z,63.15
2023-02-16T17:09:44.664Z,62.45
2023-02-16T17:12:11.781Z,64.05
2023-02-16T17:14:38.794Z,70.63
2023-02-16T17:17:08.513Z,63.35
2023-02-16T17:19:35.655Z,68.55
2023-02-16T17:22:02.660Z,60.42
2023-02-16T17:24:29.737Z,62.97
2023-02-16T17:26:56.841Z,62.38
2023-02-16T17:29:23.942Z,67.22
2023-02-16T17:31:51.008Z,67.78
2023-02-16T17:34:18.084Z,67.05
2023-02-16T17:36:45.377Z,70.78
2023-02-16T17:39:12.400Z,66.95
2023-02-16T17:41:39.390Z,71.45
2023-02-16T17:44:06.422Z,69.90
2023-02-16T17:46:33.423Z,74.00
2023-02-16T17:49:00.436Z,65.82
2023-02-16T17:51:29.471Z,66.75
2023-02-16T17:53:56.470Z,65.95
2023-02-16T17:56:24.534Z,71.10
2023-02-16T17:58:51.631Z,69.15
2023-02-16T18:01:18.878Z,75.28
2023-02-16T18:03:45.913Z,63.70
2023-02-16T18:06:14.517Z,65.65
2023-02-16T18:08:41.593Z,64.60
2023-02-16T18:11:08.589Z,67.57
2023-02-16T18:13:35.663Z,69.15
2023-02-16T18:16:07.136Z,68.72
2023-02-16T18:18:36.616Z,69.55
2023-02-16T18:21:03.747Z,73.60
2023-02-16T18:23:32.258Z,67.65
2023-02-16T18:25:59.294Z,74.47
2023-02-16T18:28:27.100Z,74.70
2023-02-16T18:30:54.240Z,78.28
2023-02-16T18:33:21.986Z,74.65
2023-02-16T18:35:49.459Z,82.55
2023-02-16T18:38:16.455Z,75.40
2023-02-16T18:40:43.744Z,80.03
2023-02-16T18:43:11.470Z,80.05
2023-02-16T18:45:39.145Z,83.88
2023-02-16T18:48:06.137Z,79.53
2023-02-16T18:50:33.161Z,78.32
2023-02-16T18:53:00.210Z,76.97
2023-02-16T18:55:32.921Z,84.85
2023-02-16T18:58:00.554Z,83.28
2023-02-16T19:00:27.704Z,87.47
2023-02-16T19:02:55.370Z,81.68
2023-02-16T19:05:22.473Z,91.43
2023-02-16T19:07:49.598Z,88.70
2023-02-16T19:10:16.674Z,81.13
2023-02-16T19:12:43.728Z,84.35
2023-02-16T19:15:10.738Z,83.35
2023-02-16T19:17:38.598Z,90.28
2023-02-16T19:20:07.957Z,87.97
2023-02-16T19:22:37.176Z,93.85
2023-02-16T19:25:05.732Z,82.10
2023-02-16T19:27:32.796Z,94.93
2023-02-16T19:29:59.881Z,93.80
2023-02-16T19:32:26.968Z,91.97
2023-02-16T19:34:54.019Z,90.03
2023-02-16T19:37:21.102Z,94.43
2023-02-16T19:39:48.118Z,85.70
2023-02-16T19:42:15.155Z,97.65
2023-02-16T19:44:42.166Z,88.30
2023-02-16T19:47:09.268Z,94.55
2023-02-16T19:49:36.678Z,88.20
2023-02-16T19:52:04.299Z,80.70
2023-02-16T19:54:33.016Z,87.88
2023-02-16T19:57:00.069Z,80.78
2023-02-16T19:59:27.172Z,81.32
2023-02-16T20:01:54.328Z,81.13
2023-02-16T20:04:21.418Z,88.30
2023-02-16T20:06:49.074Z,84.82
2023-02-16T20:09:17.816Z,83.03
2023-02-16T20:11:44.848Z,86.38
2023-02-16T20:14:12.071Z,79.55
2023-02-16T20:16:39.269Z,80.32
2023-02-16T20:19:06.340Z,78.57
2023-02-16T20:21:33.466Z,77.68
2023-02-16T20:24:01.470Z,81.50
2023-02-16T20:26:29.497Z,82.97
2023-02-16T20:28:56.549Z,79.97
2023-02-16T20:31:28.740Z,82.38
2023-02-16T20:33:55.925Z,83.47
2023-02-16T20:36:22.981Z,77.97
2023-02-16T20:38:50.341Z,77.18
2023-02-16T20:41:20.486Z,81.32
2023-02-16T20:43:47.566Z,79.93
2023-02-16T20:46:14.844Z,86.45
2023-02-16T20:48:41.882Z,80.47
2023-02-16T20:51:08.961Z,80.28
2023-02-16T20:53:36.062Z,79.32
2023-02-16T20:56:04.498Z,78.32
2023-02-16T20:58:31.990Z,76.70
2023-02-16T21:00:59.060Z,83.97
2023-02-16T21:03:26.112Z,81.57
2023-02-16T21:05:53.464Z,79.28
2023-02-16T21:08:20.859Z,79.25
2023-02-16T21:10:47.862Z,79.50
2023-02-16T21:13:14.933Z,79.25
2023-02-16T21:15:41.914Z,72.40
2023-02-16T21:18:10.440Z,74.57
2023-02-16T21:20:37.446Z,75.18
2023-02-16T21:23:04.521Z,80.38
2023-02-16T21:25:31.645Z,80.47
2023-02-16T21:27:58.685Z,86.00
2023-02-16T21:30:25.771Z,81.03
2023-02-16T21:32:52.796Z,82.75
2023-02-16T21:35:19.812Z,80.45
2023-02-16T21:37:46.854Z,82.10
2023-02-16T21:40:32.550Z,78.00
2023-02-16T21:42:59.547Z,80.60
2023-02-16T21:45:26.560Z,69.70
2023-02-16T21:48:11.994Z,73.45
2023-02-16T21:50:39.678Z,70.40
2023-02-16T21:53:06.939Z,71.10
2023-02-16T21:55:52.500Z,71.60
2023-02-16T21:58:19.536Z,72.28
2023-02-16T22:00:49.554Z,74.80
2023-02-16T22:03:16.578Z,73.55
2023-02-16T22:05:43.599Z,75.13
2023-02-16T22:08:12.586Z,72.88
2023-02-16T22:10:41.041Z,76.43
2023-02-16T22:13:08.475Z,69.57
2023-02-16T22:15:36.946Z,67.45
2023-02-16T22:18:07.012Z,69.70
2023-02-16T22:20:34.134Z,69.93
2023-02-16T22:23:01.140Z,77.45
2023-02-16T22:25:28.106Z,70.75
2023-02-16T22:27:55.132Z,66.55
2023-02-16T22:30:22.267Z,69.28
2023-02-16T22:32:51.121Z,66.75
2023-02-16T22:35:18.338Z,70.32
2023-02-16T22:37:45.331Z,63.20
2023-02-16T22:40:12.349Z,58.45
2023-02-16T22:42:39.369Z,56.33
2023-02-16T22:45:06.574Z,57.67
2023-02-16T22:47:33.576Z,60.20
2023-02-16T22:50:00.613Z,57.65
2023-02-16T22:52:28.164Z,58.95
2023-02-16T22:54:55.145Z,56.13
2023-02-16T22:57:22.207Z,56.33
2023-02-16T22:59:49.270Z,56.90
2023-02-16T23:02:16.251Z,59.25
2023-02-16T23:04:43.479Z,58.60
2023-02-16T23:07:10.538Z,60.20
2023-02-16T23:09:37.593Z,62.17
2023-02-16T23:12:04.661Z,69.85
2023-02-16T23:14:31.700Z,69.30
2023-02-16T23:16:58.823Z,70.60
2023-02-16T23:19:26.337Z,73.82
2023-02-16T23:21:53.590Z,72.07
2023-02-16T23:24:21.370Z,69.18
2023-02-16T23:26:48.380Z,73.63
2023-02-16T23:29:15.505Z,65.22
2023-02-16T23:31:42.812Z,67.22
2023-02-16T23:34:09.913Z,69.35
2023-02-16T23:36:37.144Z,70.38
2023-02-16T23:39:08.918Z,71.00
2023-02-16T23:41:35.983Z,71.63
2023-02-16T23:44:03.274Z,65.50
2023-02-16T23:46:30.420Z,67.88
2023-02-16T23:48:57.573Z,66.20
2023-02-16T23:51:24.595Z,74.68
2023-02-16T23:53:51.616Z,72.75
2023-02-16T23:56:22.462Z,64.63
2023-02-16T23:58:49.629Z,67.00
